Norwegian Spirit — C6TQ6 — position and weather

sailwx.info

Track history (hours):
 
Tides and Currents Weather Stations Pressure Air Temp Water Temp Dewpoint Dewpoint Depression Visibility Wind Speed Wind Dir Waves Ship Positions

Norwegian Spirit

Operator: Norwegian Cruise Line

Last reported at 2017-Dec-10 20:00 UTC. Time now 2017-Dec-11 13:30 UTC.
Position N 35°42' W 006°42'.

Type: Passenger vessel. MMSI: 311746000.

Wind from 120 at 19 knots

Barometer 1020.0 mb
Air temperature 15.0 ° C
Visibility: greater than 5.4 NM
Dewpoint 15.0 ° C
Water temperature 15.0 ° C

Date/timePositionNaut miles runAvg speedWind from/ knotsBaromVisibWave heightAir tempDewpointWater temp
2017-Dec-10 20:00N 35°42' W 006°42'2525.1 120 / 191020.0 5.4 15.015.015.0
2017-Dec-10 19:00N 35°48' W 006°12'15931.8 230 / 151024.0 5.4 18.0
2017-Dec-10 14:00N 35°00' W 009°18'2323.1 220 / 121025.010.8 18.0 20.0
2017-Dec-10 13:00N 34°48' W 009°42'2323.1 220 / 121025.010.8 18.0 20.0
2017-Dec-10 12:00N 34°36' W 010°06'12220.3 200 / 81025.0 5.4 19.0 20.0
2017-Dec-10 06:00N 33°54' W 012°24'5828.9 070 / 81033.0 5.4 19.0
2017-Dec-10 04:00N 33°36' W 013°30'16 8.1 090 / 81030.0 5.4 19.0 21.0
2017-Dec-10 02:00N 33°30' W 013°48'1616.2 090 / 81030.0 5.4 19.0 21.0
2017-Dec-10 01:00N 33°24' W 014°06'12 6.0 090 / 81030.0 5.4 19.0 21.0
2017-Dec-09 23:00N 33°12' W 014°06'1515378.7 200 / 191020.0 5.4 13.013.015.0
2017-Dec-09 19:00N 32°48' E 016°00'1661110.7 090 / 71030.010.8 21.0
2017-Dec-09 04:00N 31°42' W 016°42'1918.7 070 / 201029.0 5.4 19.0 22.0
2017-Dec-09 03:00N 31°24' W 016°36'2524.5 070 / 201029.0 5.4 19.0 22.0
2017-Dec-09 02:00N 31°00' W 016°30'2524.5 070 / 201029.0 5.4 19.0 22.0
2017-Dec-09 01:00N 30°36' W 016°24'1818.0 070 / 201029.0 5.4 19.0 22.0
2017-Dec-09 00:00N 30°18' W 016°24'3919.6 100 / 191030.0 5.4 15.015.015.0
2017-Dec-08 22:00N 29°42' W 016°06'5320.0 200 / 191025.0 5.4 15.015.015.0
2017-Dec-08 19:22N 28°53' W 015°42'720.9
2017-Dec-08 19:00N 28°47' W 015°39'1121.1
2017-Dec-08 18:30N 28°37' W 015°34'1019.2
2017-Dec-08 18:00N 28°28' W 015°30'917.8
2017-Dec-08 17:30N 28°20' W 015°27'917.7
2017-Dec-08 17:00N 28°11' W 015°23'4 8.4
2017-Dec-08 16:30N 28°08' W 015°25'1 1.4
2017-Dec-08 16:00N 28°08' W 015°25'0 0.0
2017-Dec-08 15:30N 28°08' W 015°25'0 0.0
2017-Dec-08 15:00N 28°08' W 015°25'0 0.0
2017-Dec-08 14:30N 28°08' W 015°25'0 0.0
2017-Dec-08 14:00N 28°08' W 015°25'0 0.0
2017-Dec-08 13:30N 28°08' W 015°25'0 0.0
2017-Dec-08 13:00N 28°08' W 015°25'0 0.0
2017-Dec-08 12:30N 28°08' W 015°25'0 0.0
2017-Dec-08 12:00N 28°08' W 015°25'0 0.0
2017-Dec-08 11:30N 28°08' W 015°25'0 0.0
2017-Dec-08 10:51N 28°08' W 015°25'0 0.0
2017-Dec-08 10:21N 28°08' W 015°25'0 0.0
2017-Dec-08 09:51N 28°08' W 015°25'0 0.0
2017-Dec-08 09:24N 28°08' W 015°25'0 0.0
2017-Dec-08 08:54N 28°08' W 015°25'0 0.0
2017-Dec-08 08:24N 28°08' W 015°25'0 0.0
2017-Dec-08 07:54N 28°08' W 015°25'0 0.0
2017-Dec-08 07:30N 28°08' W 015°25'2 4.9
2017-Dec-08 07:00N 28°07' W 015°24'510.4
2017-Dec-08 06:31N 28°05' W 015°18'510.4
2017-Dec-08 06:01N 28°05' W 015°12'510.5
2017-Dec-08 05:31N 28°05' W 015°06'4 8.8
2017-Dec-08 05:01N 28°05' W 015°01'5 9.3
2017-Dec-08 04:31N 28°10' W 014°59'5 9.7
2017-Dec-08 04:01N 28°14' W 014°58'4241.4
2017-Dec-08 04:00N 28°12' W 014°54'815.7 090 / 181025.0 5.4 19.0 21.0
2017-Dec-08 03:30N 28°19' W 014°56'5 9.3
2017-Dec-08 03:01N 28°22' W 015°00'4244.9
2017-Dec-08 03:00N 28°18' W 015°00'815.7 090 / 181025.0 5.4 19.0 21.0
2017-Dec-08 02:31N 28°24' W 015°06'5 9.7
2017-Dec-08 02:01N 28°26' W 015°11'4260.5
2017-Dec-08 02:00N 28°24' W 015°06'919.4 090 / 181025.0 5.4 19.0 21.0
2017-Dec-08 01:31N 28°27' W 015°16'510.2
2017-Dec-08 01:01N 28°29' W 015°21'6358.5
2017-Dec-08 01:00N 28°24' W 015°18'1021.5 080 / 181025.0 5.4 19.0 21.0
2017-Dec-08 00:31N 28°31' W 015°27'5 9.8
2017-Dec-08 00:01N 28°33' W 015°32'3196.0
2017-Dec-08 00:00N 28°30' W 015°30'815.9 140 / 251025.010.8 15.015.015.0
2017-Dec-07 23:31N 28°34' W 015°37'4 8.6
2017-Dec-07 23:00N 28°34' W 015°42'5 9.4
2017-Dec-07 22:30N 28°31' W 015°46'5 9.2
2017-Dec-07 22:00N 28°27' W 015°49'3593.0
2017-Dec-07 22:00N 28°24' W 015°48'4 8.0 100 / 301030.0 5.4 15.015.0
2017-Dec-07 21:31N 28°24' W 015°52'5 9.5
2017-Dec-07 21:01N 28°20' W 015°56'5 9.1
2017-Dec-07 20:31N 28°17' W 015°60'4 8.7
2017-Dec-07 20:00N 28°20' W 016°03'5 9.2
2017-Dec-07 19:31N 28°23' W 016°07'5 9.0
2017-Dec-07 19:01N 28°26' W 016°11'4 8.0
2017-Dec-07 18:31N 28°29' W 016°14'1 1.2
2017-Dec-07 18:01N 28°28' W 016°15'0 0.0
2017-Dec-07 17:25N 28°28' W 016°15'0 0.0
2017-Dec-07 16:55N 28°28' W 016°15'0 0.0
2017-Dec-07 16:25N 28°28' W 016°15'0 0.0
2017-Dec-07 15:55N 28°28' W 016°15'0 0.0
2017-Dec-07 15:25N 28°28' W 016°15'0 0.0
2017-Dec-07 13:43N 28°28' W 016°15'0 0.0
2017-Dec-07 13:25N 28°28' W 016°15'0 0.0
2017-Dec-07 12:55N 28°28' W 016°15'0 0.0
2017-Dec-07 11:31N 28°28' W 016°15'0 0.0
2017-Dec-07 11:13N 28°28' W 016°15'0 0.0
2017-Dec-07 10:37N 28°28' W 016°15'0 0.0
2017-Dec-07 10:13N 28°28' W 016°15'0 0.0
2017-Dec-07 09:43N 28°28' W 016°15'0 0.0
2017-Dec-07 09:25N 28°28' W 016°15'0 0.0
2017-Dec-07 08:43N 28°28' W 016°15'0 0.0
2017-Dec-07 08:19N 28°28' W 016°15'0 0.0
2017-Dec-07 07:55N 28°28' W 016°15'1 2.3
2017-Dec-07 07:27N 28°29' W 016°14'4 6.1
2017-Dec-07 06:47N 28°27' W 016°09'414.4
2017-Dec-07 06:31N 28°25' W 016°05'612.9
2017-Dec-07 06:01N 28°24' W 015°58'714.0
2017-Dec-07 05:31N 28°30' W 015°53'714.1
2017-Dec-07 05:01N 28°35' W 015°48'714.4
2017-Dec-07 04:30N 28°40' W 015°42'714.9
2017-Dec-07 04:01N 28°44' W 015°35'3154.0
2017-Dec-07 04:00N 28°42' W 015°36'1020.1 090 / 121027.0 5.4 19.0 22.0
2017-Dec-07 03:30N 28°49' W 015°28'815.0
2017-Dec-07 03:00N 28°54' W 015°21'2173.1
2017-Dec-07 03:00N 28°54' W 015°24'918.8 090 / 121027.0 5.4 19.0 22.0
2017-Dec-07 02:31N 28°58' W 015°15'815.3
2017-Dec-07 02:00N 29°00' W 015°06'1615.9 090 / 121027.0 5.4 19.0 22.0
2017-Dec-07 01:00N 29°12' W 014°54'3215.9 090 / 121027.0 5.4 19.0 22.0
2017-Dec-06 23:00N 29°30' W 014°24'1212.0 150 / 91030.010.8 15.015.015.0
2017-Dec-06 22:00N 29°24' W 014°12'3718.3 150 / 101020.010.8 15.015.018.0
2017-Dec-06 20:00N 29°54' W 013°48'3215.8 060 / 81034.0 5.4 19.0
2017-Dec-06 18:00N 30°12' W 013°18'3517.6 360 / 151025.0 21.0
2017-Dec-06 16:00N 30°36' W 012°48'1211.9 330 / 81027.010.8 19.0 21.0
2017-Dec-06 15:00N 30°42' W 012°36'2019.6 330 / 81027.010.8 19.0 21.0
2017-Dec-06 14:00N 30°54' W 012°18'2411.9 330 / 81027.010.8 19.0 21.0
2017-Dec-06 12:00N 31°06' W 011°54'2928.5 250 / 91020.0 5.4 18.018.018.0
2017-Dec-06 11:00N 31°30' W 011°36'4013.3 180 / 101030.0 5.4 17.017.018.0
2017-Dec-06 08:00N 31°48' W 010°54'2713.6 010 / 71035.0 5.4 17.0
2017-Dec-06 06:00N 32°06' W 010°30'4615.5 020 / 61034.0 5.4 19.0
2017-Dec-06 03:00N 32°36' W 009°48'1616.3 030 / 31029.0 5.4 16.0 18.0
2017-Dec-06 02:00N 32°42' W 009°30'1615.7 030 / 31029.0 5.4 16.0 18.0
2017-Dec-06 01:00N 32°54' W 009°18'1615.7 030 / 31029.0 5.4 16.0 19.0
2017-Dec-06 00:00N 33°06' W 009°06'2813.9 050 / 51030.0 5.4 13.013.012.0
2017-Dec-05 22:00N 33°18' W 008°36'104 5.8 050 / 51030.0 5.4 12.012.017.0
2017-Dec-05 04:00N 34°30' W 007°06'1615.5 090 / 81029.0 5.4 16.0 18.0
2017-Dec-05 03:00N 34°42' W 006°54'1918.7 090 / 81029.0 5.4 16.0 18.0
2017-Dec-05 02:00N 35°00' W 006°48'1919.0 090 / 81029.0 5.4 16.0 18.0
2017-Dec-05 01:00N 35°12' W 006°30'1515.5 090 / 81029.0 5.4 16.0 18.0
2017-Dec-05 00:00N 35°24' W 006°18'10617.7 090 / 251029.0 5.4 15.0 18.0
2017-Dec-04 18:00N 36°06' W 004°18'3417.2 110 / 201039.0 5.4 15.0
2017-Dec-04 16:00N 36°12' W 003°36'4343.3 090 / 211039.0 5.4 15.0
2017-Dec-04 15:00N 36°48' W 003°06'3838.5 080 / 121033.0 5.4 15.0 18.0
2017-Dec-04 14:00N 36°18' W 002°36'2020.2 080 / 121033.0 5.4 15.0 18.0
2017-Dec-04 13:00N 36°24' W 002°12'2020.2 080 / 71033.0 5.4 15.0 18.0
2017-Dec-04 12:00N 36°30' W 001°48'5421.8 080 / 71033.0 5.4 15.0 18.0
2017-Dec-04 09:31N 37°08' W 001°00'421.2
2017-Dec-04 09:21N 37°10' W 000°57'721.3
2017-Dec-04 09:00N 37°15' W 000°49'1121.3
2017-Dec-04 08:29N 37°21' W 000°38'1021.2
2017-Dec-04 08:00N 37°28' W 000°28'1020.8
2017-Dec-04 07:30N 37°35' W 000°19'9019.9
2017-Dec-04 03:00N 38°54' E 000°36'1515.2 270 / 61030.0 5.4 14.0 17.0
2017-Dec-04 02:00N 39°06' E 000°48'1312.9 270 / 61030.0 5.4 14.0 17.0
2017-Dec-04 01:00N 39°18' E 000°54'2020.2 270 / 61030.0 5.4 14.0 17.0
2017-Dec-04 00:00N 39°36' E 001°06'2020.2 330 / 61030.0 5.4 13.0 17.0
2017-Dec-03 23:00N 39°54' E 001°18'3316.5 250 / 131005.010.8 8.0 8.010.0
2017-Dec-03 21:00N 40°24' E 001°36'2919.3 250 / 131005.010.8 8.0 8.010.0
2017-Dec-03 19:28N 40°49' E 001°56'817.3
2017-Dec-03 19:00N 40°56' E 002°01'917.4
2017-Dec-03 18:30N 41°04' E 002°06'816.5
2017-Dec-03 18:00N 41°12' E 002°10'7 0.4
2017-Dec-03 03:02N 41°18' E 002°10'010.5
2017-Dec-03 03:00N 41°18' E 002°11'714.7
2017-Dec-03 02:30N 41°11' E 002°09'1020.6
2017-Dec-03 02:01N 41°03' E 001°59'1121.2
2017-Dec-03 01:31N 40°56' E 001°50'1733.3
2017-Dec-03 01:00N 40°42' E 001°36'1818.2 330 / 181019.0 5.4 10.0 17.0
2017-Dec-03 00:00N 40°30' E 001°18'157 8.7 330 / 271019.010.8 10.0 17.0
2017-Dec-02 05:55N 38°15' W 000°26'919.2
2017-Dec-02 05:27N 38°06' W 000°22'920.6
2017-Dec-02 05:00N 37°57' W 000°23'1020.7
2017-Dec-02 04:30N 37°47' W 000°24'918.6
2017-Dec-02 04:01N 37°38' W 000°27'715.0
2017-Dec-02 03:31N 37°32' W 000°33'1019.0
2017-Dec-02 03:01N 37°26' W 000°42'1020.4
2017-Dec-02 02:31N 37°18' W 000°51'1019.8
2017-Dec-02 02:00N 37°11' W 000°60'3818.9
2017-Dec-02 00:00N 36°42' W 001°30'2322.7 360 / 241020.0 14.0 18.0
2017-Dec-01 23:00N 36°30' W 001°54'1918.8 350 / 351010.0 5.4 13.013.016.0
2017-Dec-01 22:00N 36°18' W 002°12'140 7.1 350 / 351010.0 5.4 13.013.016.0
2017-Dec-01 02:22N 36°09' W 005°05'820.8
2017-Dec-01 02:01N 36°05' W 005°13'1121.8
2017-Dec-01 01:30N 35°59' W 005°24'8118.0
2017-Nov-30 21:00N 35°36' W 007°00'   050 / 191011.0 5.4 18.018.017.0
Track history (hours):
 
Tides and Currents Weather Stations Pressure Air Temp Water Temp Dewpoint Dewpoint Depression Visibility Wind Speed Wind Dir Waves Ship Positions

Norwegian Spirit

Operator: Norwegian Cruise Line

Last reported at 2017-Dec-10 20:00 UTC. Time now 2017-Dec-11 13:30 UTC.
Position N 35°42' W 006°42'.

Type: Passenger vessel. MMSI: 311746000.

Wind from 120 at 19 knots

Barometer 1020.0 mb
Air temperature 15.0 ° C
Visibility: greater than 5.4 NM
Dewpoint 15.0 ° C
Water temperature 15.0 ° C

Date/timePositionNaut miles runAvg speedWind from/ knotsBaromVisibWave heightAir tempDewpointWater temp
2017-Dec-10 20:00N 35°42' W 006°42'2525.1 120 / 191020.0 5.4 15.015.015.0
2017-Dec-10 19:00N 35°48' W 006°12'15931.8 230 / 151024.0 5.4 18.0
2017-Dec-10 14:00N 35°00' W 009°18'2323.1 220 / 121025.010.8 18.0 20.0
2017-Dec-10 13:00N 34°48' W 009°42'2323.1 220 / 121025.010.8 18.0 20.0
2017-Dec-10 12:00N 34°36' W 010°06'12220.3 200 / 81025.0 5.4 19.0 20.0
2017-Dec-10 06:00N 33°54' W 012°24'5828.9 070 / 81033.0 5.4 19.0
2017-Dec-10 04:00N 33°36' W 013°30'16 8.1 090 / 81030.0 5.4 19.0 21.0
2017-Dec-10 02:00N 33°30' W 013°48'1616.2 090 / 81030.0 5.4 19.0 21.0
2017-Dec-10 01:00N 33°24' W 014°06'12 6.0 090 / 81030.0 5.4 19.0 21.0
2017-Dec-09 23:00N 33°12' W 014°06'1515378.7 200 / 191020.0 5.4 13.013.015.0
2017-Dec-09 19:00N 32°48' E 016°00'1661110.7 090 / 71030.010.8 21.0
2017-Dec-09 04:00N 31°42' W 016°42'1918.7 070 / 201029.0 5.4 19.0 22.0
2017-Dec-09 03:00N 31°24' W 016°36'2524.5 070 / 201029.0 5.4 19.0 22.0
2017-Dec-09 02:00N 31°00' W 016°30'2524.5 070 / 201029.0 5.4 19.0 22.0
2017-Dec-09 01:00N 30°36' W 016°24'1818.0 070 / 201029.0 5.4 19.0 22.0
2017-Dec-09 00:00N 30°18' W 016°24'3919.6 100 / 191030.0 5.4 15.015.015.0
2017-Dec-08 22:00N 29°42' W 016°06'5320.0 200 / 191025.0 5.4 15.015.015.0
2017-Dec-08 19:22N 28°53' W 015°42'720.9
2017-Dec-08 19:00N 28°47' W 015°39'1121.1
2017-Dec-08 18:30N 28°37' W 015°34'1019.2
2017-Dec-08 18:00N 28°28' W 015°30'917.8
2017-Dec-08 17:30N 28°20' W 015°27'917.7
2017-Dec-08 17:00N 28°11' W 015°23'4 8.4
2017-Dec-08 16:30N 28°08' W 015°25'1 1.4
2017-Dec-08 16:00N 28°08' W 015°25'0 0.0
2017-Dec-08 15:30N 28°08' W 015°25'0 0.0
2017-Dec-08 15:00N 28°08' W 015°25'0 0.0
2017-Dec-08 14:30N 28°08' W 015°25'0 0.0
2017-Dec-08 14:00N 28°08' W 015°25'0 0.0
2017-Dec-08 13:30N 28°08' W 015°25'0 0.0
2017-Dec-08 13:00N 28°08' W 015°25'0 0.0
2017-Dec-08 12:30N 28°08' W 015°25'0 0.0
2017-Dec-08 12:00N 28°08' W 015°25'0 0.0
2017-Dec-08 11:30N 28°08' W 015°25'0 0.0
2017-Dec-08 10:51N 28°08' W 015°25'0 0.0
2017-Dec-08 10:21N 28°08' W 015°25'0 0.0
2017-Dec-08 09:51N 28°08' W 015°25'0 0.0
2017-Dec-08 09:24N 28°08' W 015°25'0 0.0
2017-Dec-08 08:54N 28°08' W 015°25'0 0.0
2017-Dec-08 08:24N 28°08' W 015°25'0 0.0
2017-Dec-08 07:54N 28°08' W 015°25'0 0.0
2017-Dec-08 07:30N 28°08' W 015°25'2 4.9
2017-Dec-08 07:00N 28°07' W 015°24'510.4
2017-Dec-08 06:31N 28°05' W 015°18'510.4
2017-Dec-08 06:01N 28°05' W 015°12'510.5
2017-Dec-08 05:31N 28°05' W 015°06'4 8.8
2017-Dec-08 05:01N 28°05' W 015°01'5 9.3
2017-Dec-08 04:31N 28°10' W 014°59'5 9.7
2017-Dec-08 04:01N 28°14' W 014°58'4241.4
2017-Dec-08 04:00N 28°12' W 014°54'815.7 090 / 181025.0 5.4 19.0 21.0
2017-Dec-08 03:30N 28°19' W 014°56'5 9.3
2017-Dec-08 03:01N 28°22' W 015°00'4244.9
2017-Dec-08 03:00N 28°18' W 015°00'815.7 090 / 181025.0 5.4 19.0 21.0
2017-Dec-08 02:31N 28°24' W 015°06'5 9.7
2017-Dec-08 02:01N 28°26' W 015°11'4260.5
2017-Dec-08 02:00N 28°24' W 015°06'919.4 090 / 181025.0 5.4 19.0 21.0
2017-Dec-08 01:31N 28°27' W 015°16'510.2
2017-Dec-08 01:01N 28°29' W 015°21'6358.5
2017-Dec-08 01:00N 28°24' W 015°18'1021.5 080 / 181025.0 5.4 19.0 21.0
2017-Dec-08 00:31N 28°31' W 015°27'5 9.8
2017-Dec-08 00:01N 28°33' W 015°32'3196.0
2017-Dec-08 00:00N 28°30' W 015°30'815.9 140 / 251025.010.8 15.015.015.0
2017-Dec-07 23:31N 28°34' W 015°37'4 8.6
2017-Dec-07 23:00N 28°34' W 015°42'5 9.4
2017-Dec-07 22:30N 28°31' W 015°46'5 9.2
2017-Dec-07 22:00N 28°27' W 015°49'3593.0
2017-Dec-07 22:00N 28°24' W 015°48'4 8.0 100 / 301030.0 5.4 15.015.0
2017-Dec-07 21:31N 28°24' W 015°52'5 9.5
2017-Dec-07 21:01N 28°20' W 015°56'5 9.1
2017-Dec-07 20:31N 28°17' W 015°60'4 8.7
2017-Dec-07 20:00N 28°20' W 016°03'5 9.2
2017-Dec-07 19:31N 28°23' W 016°07'5 9.0
2017-Dec-07 19:01N 28°26' W 016°11'4 8.0
2017-Dec-07 18:31N 28°29' W 016°14'1 1.2
2017-Dec-07 18:01N 28°28' W 016°15'0 0.0
2017-Dec-07 17:25N 28°28' W 016°15'0 0.0
2017-Dec-07 16:55N 28°28' W 016°15'0 0.0
2017-Dec-07 16:25N 28°28' W 016°15'0 0.0
2017-Dec-07 15:55N 28°28' W 016°15'0 0.0
2017-Dec-07 15:25N 28°28' W 016°15'0 0.0
2017-Dec-07 13:43N 28°28' W 016°15'0 0.0
2017-Dec-07 13:25N 28°28' W 016°15'0 0.0
2017-Dec-07 12:55N 28°28' W 016°15'0 0.0
2017-Dec-07 11:31N 28°28' W 016°15'0 0.0
2017-Dec-07 11:13N 28°28' W 016°15'0 0.0
2017-Dec-07 10:37N 28°28' W 016°15'0 0.0
2017-Dec-07 10:13N 28°28' W 016°15'0 0.0
2017-Dec-07 09:43N 28°28' W 016°15'0 0.0
2017-Dec-07 09:25N 28°28' W 016°15'0 0.0
2017-Dec-07 08:43N 28°28' W 016°15'0 0.0
2017-Dec-07 08:19N 28°28' W 016°15'0 0.0
2017-Dec-07 07:55N 28°28' W 016°15'1 2.3
2017-Dec-07 07:27N 28°29' W 016°14'4 6.1
2017-Dec-07 06:47N 28°27' W 016°09'414.4
2017-Dec-07 06:31N 28°25' W 016°05'612.9
2017-Dec-07 06:01N 28°24' W 015°58'714.0
2017-Dec-07 05:31N 28°30' W 015°53'714.1
2017-Dec-07 05:01N 28°35' W 015°48'714.4
2017-Dec-07 04:30N 28°40' W 015°42'714.9
2017-Dec-07 04:01N 28°44' W 015°35'3154.0
2017-Dec-07 04:00N 28°42' W 015°36'1020.1 090 / 121027.0 5.4 19.0 22.0
2017-Dec-07 03:30N 28°49' W 015°28'815.0
2017-Dec-07 03:00N 28°54' W 015°21'2173.1
2017-Dec-07 03:00N 28°54' W 015°24'918.8 090 / 121027.0 5.4 19.0 22.0
2017-Dec-07 02:31N 28°58' W 015°15'815.3
2017-Dec-07 02:00N 29°00' W 015°06'1615.9 090 / 121027.0 5.4 19.0 22.0
2017-Dec-07 01:00N 29°12' W 014°54'3215.9 090 / 121027.0 5.4 19.0 22.0
2017-Dec-06 23:00N 29°30' W 014°24'1212.0 150 / 91030.010.8 15.015.015.0
2017-Dec-06 22:00N 29°24' W 014°12'3718.3 150 / 101020.010.8 15.015.018.0
2017-Dec-06 20:00N 29°54' W 013°48'3215.8 060 / 81034.0 5.4 19.0
2017-Dec-06 18:00N 30°12' W 013°18'3517.6 360 / 151025.0 21.0
2017-Dec-06 16:00N 30°36' W 012°48'1211.9 330 / 81027.010.8 19.0 21.0
2017-Dec-06 15:00N 30°42' W 012°36'2019.6 330 / 81027.010.8 19.0 21.0
2017-Dec-06 14:00N 30°54' W 012°18'2411.9 330 / 81027.010.8 19.0 21.0
2017-Dec-06 12:00N 31°06' W 011°54'2928.5 250 / 91020.0 5.4 18.018.018.0
2017-Dec-06 11:00N 31°30' W 011°36'4013.3 180 / 101030.0 5.4 17.017.018.0
2017-Dec-06 08:00N 31°48' W 010°54'2713.6 010 / 71035.0 5.4 17.0
2017-Dec-06 06:00N 32°06' W 010°30'4615.5 020 / 61034.0 5.4 19.0
2017-Dec-06 03:00N 32°36' W 009°48'1616.3 030 / 31029.0 5.4 16.0 18.0
2017-Dec-06 02:00N 32°42' W 009°30'1615.7 030 / 31029.0 5.4 16.0 18.0
2017-Dec-06 01:00N 32°54' W 009°18'1615.7 030 / 31029.0 5.4 16.0 19.0
2017-Dec-06 00:00N 33°06' W 009°06'2813.9 050 / 51030.0 5.4 13.013.012.0
2017-Dec-05 22:00N 33°18' W 008°36'104 5.8 050 / 51030.0 5.4 12.012.017.0
2017-Dec-05 04:00N 34°30' W 007°06'1615.5 090 / 81029.0 5.4 16.0 18.0
2017-Dec-05 03:00N 34°42' W 006°54'1918.7 090 / 81029.0 5.4 16.0 18.0
2017-Dec-05 02:00N 35°00' W 006°48'1919.0 090 / 81029.0 5.4 16.0 18.0
2017-Dec-05 01:00N 35°12' W 006°30'1515.5 090 / 81029.0 5.4 16.0 18.0
2017-Dec-05 00:00N 35°24' W 006°18'10617.7 090 / 251029.0 5.4 15.0 18.0
2017-Dec-04 18:00N 36°06' W 004°18'3417.2 110 / 201039.0 5.4 15.0
2017-Dec-04 16:00N 36°12' W 003°36'4343.3 090 / 211039.0 5.4 15.0
2017-Dec-04 15:00N 36°48' W 003°06'3838.5 080 / 121033.0 5.4 15.0 18.0
2017-Dec-04 14:00N 36°18' W 002°36'2020.2 080 / 121033.0 5.4 15.0 18.0
2017-Dec-04 13:00N 36°24' W 002°12'2020.2 080 / 71033.0 5.4 15.0 18.0
2017-Dec-04 12:00N 36°30' W 001°48'5421.8 080 / 71033.0 5.4 15.0 18.0
2017-Dec-04 09:31N 37°08' W 001°00'421.2
2017-Dec-04 09:21N 37°10' W 000°57'721.3
2017-Dec-04 09:00N 37°15' W 000°49'1121.3
2017-Dec-04 08:29N 37°21' W 000°38'1021.2
2017-Dec-04 08:00N 37°28' W 000°28'1020.8
2017-Dec-04 07:30N 37°35' W 000°19'9019.9
2017-Dec-04 03:00N 38°54' E 000°36'1515.2 270 / 61030.0 5.4 14.0 17.0
2017-Dec-04 02:00N 39°06' E 000°48'1312.9 270 / 61030.0 5.4 14.0 17.0
2017-Dec-04 01:00N 39°18' E 000°54'2020.2 270 / 61030.0 5.4 14.0 17.0
2017-Dec-04 00:00N 39°36' E 001°06'2020.2 330 / 61030.0 5.4 13.0 17.0
2017-Dec-03 23:00N 39°54' E 001°18'3316.5 250 / 131005.010.8 8.0 8.010.0
2017-Dec-03 21:00N 40°24' E 001°36'2919.3 250 / 131005.010.8 8.0 8.010.0
2017-Dec-03 19:28N 40°49' E 001°56'817.3
2017-Dec-03 19:00N 40°56' E 002°01'917.4
2017-Dec-03 18:30N 41°04' E 002°06'816.5
2017-Dec-03 18:00N 41°12' E 002°10'7 0.4
2017-Dec-03 03:02N 41°18' E 002°10'010.5
2017-Dec-03 03:00N 41°18' E 002°11'714.7
2017-Dec-03 02:30N 41°11' E 002°09'1020.6
2017-Dec-03 02:01N 41°03' E 001°59'1121.2
2017-Dec-03 01:31N 40°56' E 001°50'1733.3
2017-Dec-03 01:00N 40°42' E 001°36'1818.2 330 / 181019.0 5.4 10.0 17.0
2017-Dec-03 00:00N 40°30' E 001°18'157 8.7 330 / 271019.010.8 10.0 17.0
2017-Dec-02 05:55N 38°15' W 000°26'919.2
2017-Dec-02 05:27N 38°06' W 000°22'920.6
2017-Dec-02 05:00N 37°57' W 000°23'1020.7
2017-Dec-02 04:30N 37°47' W 000°24'918.6
2017-Dec-02 04:01N 37°38' W 000°27'715.0
2017-Dec-02 03:31N 37°32' W 000°33'1019.0
2017-Dec-02 03:01N 37°26' W 000°42'1020.4
2017-Dec-02 02:31N 37°18' W 000°51'1019.8
2017-Dec-02 02:00N 37°11' W 000°60'3818.9
2017-Dec-02 00:00N 36°42' W 001°30'2322.7 360 / 241020.0 14.0 18.0
2017-Dec-01 23:00N 36°30' W 001°54'1918.8 350 / 351010.0 5.4 13.013.016.0
2017-Dec-01 22:00N 36°18' W 002°12'140 7.1 350 / 351010.0 5.4 13.013.016.0
2017-Dec-01 02:22N 36°09' W 005°05'820.8
2017-Dec-01 02:01N 36°05' W 005°13'1121.8
2017-Dec-01 01:30N 35°59' W 005°24'8118.0
2017-Nov-30 21:00N 35°36' W 007°00'   050 / 191011.0 5.4 18.018.017.0

Dump ship's entire track history